Innerleithen, United Kingdom
Current Conditions -  °F | °C
As of 8:20 AM on Thursday 27 Nov 2014 (Local Time) from EGPH Reporting Station
Broken Clouds Broken Clouds  
Wind Chill: 43°   Ceiling: 3500
Heat Index: 43°   Visibility: 6mi
Dew Point: 41°   Wind: 2mph
Humidity: 93%   Direction: 80°E
Pressure: 29.65"   Gusts: NA
Location:  55.62°N, 3.06°W
Report Text: EGPH 270820Z 08002KT 9000 FEW016 BKN035 06/05 Q1004
Loading
Personal Weather Stations






























Interactive Weather Map New forecast layout! Learn more

10-Day Weather Forecast

Advertisements
Track Severe Weather on mobile